createdAt,value
2023-07-24T00:05:25.241Z,17.9
2023-07-24T00:15:25.471Z,17.8
2023-07-24T00:25:25.616Z,17.8
2023-07-24T00:35:25.810Z,17.6
2023-07-24T00:45:26.004Z,17.4
2023-07-24T00:55:26.213Z,17.3
2023-07-24T01:05:26.419Z,17.2
2023-07-24T01:25:26.803Z,17.1
2023-07-24T01:35:26.993Z,17.2
2023-07-24T01:45:27.180Z,17.2
2023-07-24T01:55:27.381Z,17.2
2023-07-24T02:05:27.583Z,17.2
2023-07-24T02:25:27.965Z,17.2
2023-07-24T02:45:28.346Z,17.2
2023-07-24T02:55:28.549Z,17.3
2023-07-24T03:05:28.742Z,17.4
2023-07-24T03:15:29.021Z,17.5
2023-07-24T03:25:29.150Z,17.6
2023-07-24T03:35:29.345Z,17.6
2023-07-24T03:45:29.589Z,17.5
2023-07-24T03:55:29.745Z,17.4
2023-07-24T04:15:30.173Z,17.2
2023-07-24T04:25:30.316Z,17.2
2023-07-24T04:35:30.507Z,17.2
2023-07-24T04:45:30.757Z,17.2
2023-07-24T04:55:30.908Z,17.1
2023-07-24T05:05:31.102Z,17.1
2023-07-24T05:15:31.295Z,17.2
2023-07-24T05:35:31.886Z,17.4
2023-07-24T05:45:31.885Z,17.5
2023-07-24T05:55:32.082Z,17.6
2023-07-24T06:05:32.269Z,17.4
2023-07-24T06:15:32.508Z,17.5
2023-07-24T06:25:32.708Z,17.6
2023-07-24T06:35:32.864Z,17.7
2023-07-24T06:45:33.119Z,17.8
2023-07-24T06:55:33.250Z,17.9
2023-07-24T07:05:33.496Z,17.8
2023-07-24T07:15:33.728Z,17.8
2023-07-24T07:25:33.858Z,17.7
2023-07-24T07:35:34.046Z,17.5
2023-07-24T07:45:34.238Z,17.7
2023-07-24T07:55:34.433Z,17.7
2023-07-24T08:05:34.649Z,17.7
2023-07-24T08:25:35.018Z,18
2023-07-24T08:35:35.216Z,18.4
2023-07-24T08:45:35.414Z,18.4
2023-07-24T08:55:35.619Z,18.7
2023-07-24T09:05:35.794Z,18.9
2023-07-24T09:15:36.006Z,19.7
2023-07-24T09:25:36.183Z,19.7
2023-07-24T09:35:36.382Z,19.5
2023-07-24T09:45:37.423Z,19.9
2023-07-24T09:55:36.783Z,20.4
2023-07-24T10:05:36.968Z,19.9
2023-07-24T10:15:37.163Z,20.2
2023-07-24T10:25:37.355Z,19.9
2023-07-24T10:35:37.554Z,20
2023-07-24T10:45:37.757Z,20.3
2023-07-24T10:55:37.934Z,20.8
2023-07-24T11:15:38.360Z,20.6
2023-07-24T11:25:38.527Z,20.3
2023-07-24T11:35:38.716Z,20.3
2023-07-24T11:45:38.906Z,19.6
2023-07-24T11:55:39.112Z,18.5
2023-07-24T12:05:39.308Z,17.6
2023-07-24T12:15:39.508Z,17.8
2023-07-24T12:25:39.690Z,17.9
2023-07-24T12:35:39.897Z,18.1
2023-07-24T12:45:40.102Z,18.3
2023-07-24T12:55:40.300Z,18.4
2023-07-24T13:05:40.503Z,18.5
2023-07-24T13:25:40.881Z,19.5
2023-07-24T13:35:41.078Z,19.7
2023-07-24T13:45:41.260Z,20.4
2023-07-24T13:55:41.457Z,20.9
2023-07-24T14:05:41.649Z,20.7
2023-07-24T14:15:41.862Z,20.4
2023-07-24T14:25:42.047Z,21.5
2023-07-24T14:35:42.231Z,21.7
2023-07-24T14:45:42.440Z,21.8
2023-07-24T14:55:42.620Z,21.3
2023-07-24T15:15:43.022Z,21
2023-07-24T15:35:43.408Z,19.8
2023-07-24T15:45:43.607Z,19.4
2023-07-24T15:55:43.816Z,19.3
2023-07-24T16:05:44.024Z,19.7
2023-07-24T16:25:44.373Z,19.8
2023-07-24T16:35:44.618Z,19.7
2023-07-24T16:46:03.295Z,19.3
2023-07-24T16:55:44.953Z,18.9
2023-07-24T17:05:45.154Z,18.8
2023-07-24T17:15:45.349Z,18.4
2023-07-24T17:25:45.544Z,18.2
2023-07-24T17:35:45.741Z,17.8
2023-07-24T17:45:45.936Z,17.5
2023-07-24T17:55:46.131Z,17.1
2023-07-24T18:05:46.340Z,16.8
2023-07-24T18:15:46.573Z,16.6
2023-07-24T18:25:46.722Z,16.4
2023-07-24T18:35:46.926Z,16.1
2023-07-24T18:45:47.143Z,16
2023-07-24T18:55:47.347Z,16
2023-07-24T19:05:47.622Z,15.9
2023-07-24T19:15:47.733Z,15.9
2023-07-24T19:25:47.897Z,15.8
2023-07-24T19:35:48.101Z,15.7
2023-07-24T19:55:48.497Z,15.6
2023-07-24T20:15:48.959Z,15.4
2023-07-24T20:25:49.074Z,15.3
2023-07-24T20:35:49.284Z,15.1
2023-07-24T20:45:49.527Z,14.9
2023-07-24T20:55:49.665Z,14.8
2023-07-24T21:05:49.973Z,14.7
2023-07-24T21:15:50.105Z,14.6
2023-07-24T21:25:50.270Z,14.5
2023-07-24T21:35:50.464Z,14.4
2023-07-24T21:45:50.661Z,14.3
2023-07-24T21:55:50.920Z,14.1
2023-07-24T22:05:51.133Z,14.1
2023-07-24T22:15:51.271Z,13.9
2023-07-24T22:25:51.463Z,13.9
2023-07-24T22:35:51.666Z,14
2023-07-24T22:45:51.860Z,14
2023-07-24T22:55:52.077Z,14
2023-07-24T23:05:52.247Z,14
2023-07-24T23:15:52.443Z,14
2023-07-24T23:25:52.630Z,13.9
2023-07-24T23:35:52.850Z,13.8
2023-07-24T23:45:53.064Z,13.7
2023-07-24T23:55:53.275Z,13.5
